sensor_id;sensor_type;location;lat;lon;timestamp;P1;durP1;ratioP1;P2;durP2;ratioP2
10281;SDS011;5186;59.472;18.048;2023-02-15T00:01:43;9.77;;;4.73;;
10281;SDS011;5186;59.472;18.048;2023-02-15T00:04:09;9.23;;;4.50;;
10281;SDS011;5186;59.472;18.048;2023-02-15T00:06:38;8.53;;;4.73;;
10281;SDS011;5186;59.472;18.048;2023-02-15T00:09:04;10.13;;;4.80;;
10281;SDS011;5186;59.472;18.048;2023-02-15T00:11:30;7.53;;;4.60;;
10281;SDS011;5186;59.472;18.048;2023-02-15T00:14:05;9.93;;;4.53;;
10281;SDS011;5186;59.472;18.048;2023-02-15T00:16:32;8.77;;;4.53;;
10281;SDS011;5186;59.472;18.048;2023-02-15T00:18:58;9.73;;;4.70;;
10281;SDS011;5186;59.472;18.048;2023-02-15T00:21:27;5.50;;;4.37;;
10281;SDS011;5186;59.472;18.048;2023-02-15T00:23:57;6.47;;;4.33;;
10281;SDS011;5186;59.472;18.048;2023-02-15T00:26:24;6.60;;;4.30;;
10281;SDS011;5186;59.472;18.048;2023-02-15T00:28:50;8.10;;;4.47;;
10281;SDS011;5186;59.472;18.048;2023-02-15T00:31:16;7.70;;;4.60;;
10281;SDS011;5186;59.472;18.048;2023-02-15T00:33:41;7.40;;;4.70;;
10281;SDS011;5186;59.472;18.048;2023-02-15T00:36:08;10.83;;;4.77;;
10281;SDS011;5186;59.472;18.048;2023-02-15T00:38:34;7.70;;;4.53;;
10281;SDS011;5186;59.472;18.048;2023-02-15T00:41:01;8.40;;;4.40;;
10281;SDS011;5186;59.472;18.048;2023-02-15T00:43:28;10.63;;;4.47;;
10281;SDS011;5186;59.472;18.048;2023-02-15T00:45:56;11.20;;;4.20;;
10281;SDS011;5186;59.472;18.048;2023-02-15T00:48:22;8.17;;;4.57;;
10281;SDS011;5186;59.472;18.048;2023-02-15T00:50:52;7.73;;;4.27;;
10281;SDS011;5186;59.472;18.048;2023-02-15T00:53:19;9.43;;;4.03;;
10281;SDS011;5186;59.472;18.048;2023-02-15T00:55:46;10.17;;;4.70;;
10281;SDS011;5186;59.472;18.048;2023-02-15T00:58:12;5.83;;;4.30;;
10281;SDS011;5186;59.472;18.048;2023-02-15T01:00:38;7.10;;;4.30;;
10281;SDS011;5186;59.472;18.048;2023-02-15T01:03:05;10.40;;;4.00;;
10281;SDS011;5186;59.472;18.048;2023-02-15T01:05:31;6.90;;;4.03;;
10281;SDS011;5186;59.472;18.048;2023-02-15T01:07:57;5.87;;;4.10;;
10281;SDS011;5186;59.472;18.048;2023-02-15T01:10:24;7.87;;;3.70;;
10281;SDS011;5186;59.472;18.048;2023-02-15T01:12:51;6.37;;;4.17;;
10281;SDS011;5186;59.472;18.048;2023-02-15T01:15:18;6.90;;;3.90;;
10281;SDS011;5186;59.472;18.048;2023-02-15T01:17:44;6.90;;;3.57;;
10281;SDS011;5186;59.472;18.048;2023-02-15T01:20:16;7.17;;;3.67;;
10281;SDS011;5186;59.472;18.048;2023-02-15T01:22:42;7.80;;;4.03;;
10281;SDS011;5186;59.472;18.048;2023-02-15T01:25:08;6.37;;;4.20;;
10281;SDS011;5186;59.472;18.048;2023-02-15T01:27:34;8.97;;;4.80;;
10281;SDS011;5186;59.472;18.048;2023-02-15T01:29:59;5.60;;;3.87;;
10281;SDS011;5186;59.472;18.048;2023-02-15T01:32:25;5.87;;;4.03;;
10281;SDS011;5186;59.472;18.048;2023-02-15T01:34:51;6.77;;;4.30;;
10281;SDS011;5186;59.472;18.048;2023-02-15T01:37:17;5.67;;;4.40;;
10281;SDS011;5186;59.472;18.048;2023-02-15T01:39:43;5.40;;;3.77;;
10281;SDS011;5186;59.472;18.048;2023-02-15T01:42:12;4.93;;;3.60;;
10281;SDS011;5186;59.472;18.048;2023-02-15T01:44:51;8.00;;;4.03;;
10281;SDS011;5186;59.472;18.048;2023-02-15T01:50:14;7.73;;;3.93;;
10281;SDS011;5186;59.472;18.048;2023-02-15T01:55:34;7.77;;;4.10;;
10281;SDS011;5186;59.472;18.048;2023-02-15T01:58:05;7.37;;;3.93;;
10281;SDS011;5186;59.472;18.048;2023-02-15T02:00:31;6.43;;;3.77;;
10281;SDS011;5186;59.472;18.048;2023-02-15T02:02:58;8.10;;;4.20;;
10281;SDS011;5186;59.472;18.048;2023-02-15T02:05:24;4.83;;;3.60;;
10281;SDS011;5186;59.472;18.048;2023-02-15T02:07:50;5.37;;;3.60;;
10281;SDS011;5186;59.472;18.048;2023-02-15T02:10:19;6.50;;;3.60;;
10281;SDS011;5186;59.472;18.048;2023-02-15T02:12:48;6.27;;;4.00;;
10281;SDS011;5186;59.472;18.048;2023-02-15T02:15:16;6.50;;;4.23;;
10281;SDS011;5186;59.472;18.048;2023-02-15T02:20:28;7.30;;;3.90;;
10281;SDS011;5186;59.472;18.048;2023-02-15T02:33:54;7.47;;;4.50;;
10281;SDS011;5186;59.472;18.048;2023-02-15T02:41:56;9.30;;;4.27;;
10281;SDS011;5186;59.472;18.048;2023-02-15T02:47:05;10.07;;;4.40;;
10281;SDS011;5186;59.472;18.048;2023-02-15T02:49:51;7.93;;;4.53;;
10281;SDS011;5186;59.472;18.048;2023-02-15T03:01:01;8.43;;;4.57;;
10281;SDS011;5186;59.472;18.048;2023-02-15T03:03:50;7.23;;;4.07;;
10281;SDS011;5186;59.472;18.048;2023-02-15T03:06:46;7.23;;;4.10;;
10281;SDS011;5186;59.472;18.048;2023-02-15T03:09:33;6.00;;;3.90;;
10281;SDS011;5186;59.472;18.048;2023-02-15T03:12:08;5.77;;;4.00;;
10281;SDS011;5186;59.472;18.048;2023-02-15T03:14:39;7.40;;;3.93;;
10281;SDS011;5186;59.472;18.048;2023-02-15T03:17:07;7.43;;;4.20;;
10281;SDS011;5186;59.472;18.048;2023-02-15T03:19:34;7.00;;;4.17;;
10281;SDS011;5186;59.472;18.048;2023-02-15T03:22:10;8.90;;;4.50;;
10281;SDS011;5186;59.472;18.048;2023-02-15T03:24:54;8.97;;;4.50;;
10281;SDS011;5186;59.472;18.048;2023-02-15T03:27:24;10.00;;;4.10;;
10281;SDS011;5186;59.472;18.048;2023-02-15T03:29:53;8.17;;;4.33;;
10281;SDS011;5186;59.472;18.048;2023-02-15T03:32:23;8.53;;;4.07;;
10281;SDS011;5186;59.472;18.048;2023-02-15T03:34:51;9.40;;;4.63;;
10281;SDS011;5186;59.472;18.048;2023-02-15T03:37:35;9.47;;;5.03;;
10281;SDS011;5186;59.472;18.048;2023-02-15T03:46:12;9.20;;;4.80;;
10281;SDS011;5186;59.472;18.048;2023-02-15T03:51:43;8.97;;;4.90;;
10281;SDS011;5186;59.472;18.048;2023-02-15T03:54:16;8.67;;;3.93;;
10281;SDS011;5186;59.472;18.048;2023-02-15T03:57:07;7.53;;;5.10;;
10281;SDS011;5186;59.472;18.048;2023-02-15T03:59:54;7.50;;;4.80;;
10281;SDS011;5186;59.472;18.048;2023-02-15T04:05:22;8.87;;;4.60;;
10281;SDS011;5186;59.472;18.048;2023-02-15T04:07:48;8.10;;;4.77;;
10281;SDS011;5186;59.472;18.048;2023-02-15T04:10:14;8.07;;;5.00;;
10281;SDS011;5186;59.472;18.048;2023-02-15T04:12:58;8.87;;;4.90;;
10281;SDS011;5186;59.472;18.048;2023-02-15T04:15:24;6.17;;;4.63;;
10281;SDS011;5186;59.472;18.048;2023-02-15T04:18:08;8.97;;;4.83;;
10281;SDS011;5186;59.472;18.048;2023-02-15T04:20:33;8.83;;;4.53;;
10281;SDS011;5186;59.472;18.048;2023-02-15T04:23:18;9.90;;;5.10;;
10281;SDS011;5186;59.472;18.048;2023-02-15T04:26:03;10.83;;;4.87;;
10281;SDS011;5186;59.472;18.048;2023-02-15T04:28:29;8.27;;;5.53;;
10281;SDS011;5186;59.472;18.048;2023-02-15T04:30:55;10.07;;;5.03;;
10281;SDS011;5186;59.472;18.048;2023-02-15T04:33:21;8.37;;;5.33;;
10281;SDS011;5186;59.472;18.048;2023-02-15T04:35:46;9.40;;;5.67;;
10281;SDS011;5186;59.472;18.048;2023-02-15T04:38:12;9.30;;;5.50;;
10281;SDS011;5186;59.472;18.048;2023-02-15T04:40:37;8.93;;;5.63;;
10281;SDS011;5186;59.472;18.048;2023-02-15T04:43:03;8.90;;;4.87;;
10281;SDS011;5186;59.472;18.048;2023-02-15T04:45:28;7.97;;;5.07;;
10281;SDS011;5186;59.472;18.048;2023-02-15T04:47:54;8.00;;;4.90;;
10281;SDS011;5186;59.472;18.048;2023-02-15T04:50:20;9.10;;;5.40;;
10281;SDS011;5186;59.472;18.048;2023-02-15T04:52:45;9.53;;;5.20;;
10281;SDS011;5186;59.472;18.048;2023-02-15T04:55:11;11.80;;;5.53;;
10281;SDS011;5186;59.472;18.048;2023-02-15T04:57:37;9.40;;;5.97;;
10281;SDS011;5186;59.472;18.048;2023-02-15T05:00:02;11.03;;;6.13;;
10281;SDS011;5186;59.472;18.048;2023-02-15T05:02:28;10.43;;;5.77;;
10281;SDS011;5186;59.472;18.048;2023-02-15T05:04:54;7.73;;;5.47;;
10281;SDS011;5186;59.472;18.048;2023-02-15T05:07:19;10.93;;;6.70;;
10281;SDS011;5186;59.472;18.048;2023-02-15T05:09:45;11.67;;;6.40;;
10281;SDS011;5186;59.472;18.048;2023-02-15T05:12:10;10.97;;;6.27;;
10281;SDS011;5186;59.472;18.048;2023-02-15T05:14:36;10.87;;;6.53;;
10281;SDS011;5186;59.472;18.048;2023-02-15T05:17:02;12.13;;;6.67;;
10281;SDS011;5186;59.472;18.048;2023-02-15T05:19:28;13.20;;;6.97;;
10281;SDS011;5186;59.472;18.048;2023-02-15T05:21:54;13.53;;;6.77;;
10281;SDS011;5186;59.472;18.048;2023-02-15T05:24:20;12.80;;;6.93;;
10281;SDS011;5186;59.472;18.048;2023-02-15T05:27:04;11.13;;;6.70;;
10281;SDS011;5186;59.472;18.048;2023-02-15T05:29:48;13.33;;;7.63;;
10281;SDS011;5186;59.472;18.048;2023-02-15T05:32:14;13.57;;;7.60;;
10281;SDS011;5186;59.472;18.048;2023-02-15T05:34:39;10.93;;;7.03;;
10281;SDS011;5186;59.472;18.048;2023-02-15T05:37:05;10.80;;;6.13;;
10281;SDS011;5186;59.472;18.048;2023-02-15T05:39:32;12.43;;;7.20;;
10281;SDS011;5186;59.472;18.048;2023-02-15T05:41:59;12.13;;;6.80;;
10281;SDS011;5186;59.472;18.048;2023-02-15T05:44:25;13.00;;;7.13;;
10281;SDS011;5186;59.472;18.048;2023-02-15T05:46:50;10.73;;;6.47;;
10281;SDS011;5186;59.472;18.048;2023-02-15T05:49:16;12.30;;;6.67;;
10281;SDS011;5186;59.472;18.048;2023-02-15T05:51:41;11.73;;;6.63;;
10281;SDS011;5186;59.472;18.048;2023-02-15T05:54:07;13.30;;;7.83;;
10281;SDS011;5186;59.472;18.048;2023-02-15T05:56:32;13.43;;;6.70;;
10281;SDS011;5186;59.472;18.048;2023-02-15T05:58:58;11.43;;;6.63;;
10281;SDS011;5186;59.472;18.048;2023-02-15T06:01:24;12.87;;;6.90;;
10281;SDS011;5186;59.472;18.048;2023-02-15T06:03:49;12.00;;;6.80;;
10281;SDS011;5186;59.472;18.048;2023-02-15T06:06:15;11.77;;;6.77;;
10281;SDS011;5186;59.472;18.048;2023-02-15T06:08:40;12.73;;;6.73;;
10281;SDS011;5186;59.472;18.048;2023-02-15T06:11:06;17.10;;;6.90;;
10281;SDS011;5186;59.472;18.048;2023-02-15T06:13:33;12.93;;;6.93;;
10281;SDS011;5186;59.472;18.048;2023-02-15T06:15:59;13.90;;;7.40;;
10281;SDS011;5186;59.472;18.048;2023-02-15T06:18:25;11.80;;;7.27;;
10281;SDS011;5186;59.472;18.048;2023-02-15T06:20:50;12.00;;;7.37;;
10281;SDS011;5186;59.472;18.048;2023-02-15T06:23:16;10.90;;;7.13;;
10281;SDS011;5186;59.472;18.048;2023-02-15T06:25:43;12.33;;;6.87;;
10281;SDS011;5186;59.472;18.048;2023-02-15T06:28:10;14.63;;;7.80;;
10281;SDS011;5186;59.472;18.048;2023-02-15T06:30:36;13.27;;;7.30;;
10281;SDS011;5186;59.472;18.048;2023-02-15T06:33:01;13.60;;;7.73;;
10281;SDS011;5186;59.472;18.048;2023-02-15T06:35:27;10.63;;;6.97;;
10281;SDS011;5186;59.472;18.048;2023-02-15T06:37:53;12.43;;;7.53;;
10281;SDS011;5186;59.472;18.048;2023-02-15T06:40:18;13.80;;;6.70;;
10281;SDS011;5186;59.472;18.048;2023-02-15T06:42:44;14.63;;;7.63;;
10281;SDS011;5186;59.472;18.048;2023-02-15T06:45:10;13.67;;;7.63;;
10281;SDS011;5186;59.472;18.048;2023-02-15T06:47:36;12.83;;;7.63;;
10281;SDS011;5186;59.472;18.048;2023-02-15T06:50:02;11.97;;;6.70;;
10281;SDS011;5186;59.472;18.048;2023-02-15T06:52:29;12.97;;;7.30;;
10281;SDS011;5186;59.472;18.048;2023-02-15T06:54:54;14.53;;;7.93;;
10281;SDS011;5186;59.472;18.048;2023-02-15T06:57:20;12.63;;;7.23;;
10281;SDS011;5186;59.472;18.048;2023-02-15T06:59:46;14.07;;;7.30;;
10281;SDS011;5186;59.472;18.048;2023-02-15T07:02:11;14.20;;;7.93;;
10281;SDS011;5186;59.472;18.048;2023-02-15T07:04:37;15.20;;;7.80;;
10281;SDS011;5186;59.472;18.048;2023-02-15T07:07:03;14.70;;;7.90;;
10281;SDS011;5186;59.472;18.048;2023-02-15T07:09:29;13.93;;;7.77;;
10281;SDS011;5186;59.472;18.048;2023-02-15T07:11:54;13.43;;;7.77;;
10281;SDS011;5186;59.472;18.048;2023-02-15T07:14:39;13.10;;;6.87;;
10281;SDS011;5186;59.472;18.048;2023-02-15T07:17:05;15.00;;;6.67;;
10281;SDS011;5186;59.472;18.048;2023-02-15T07:19:31;16.13;;;7.77;;
10281;SDS011;5186;59.472;18.048;2023-02-15T07:21:56;12.97;;;7.33;;
10281;SDS011;5186;59.472;18.048;2023-02-15T07:24:22;11.60;;;7.17;;
10281;SDS011;5186;59.472;18.048;2023-02-15T07:26:48;13.93;;;7.73;;
10281;SDS011;5186;59.472;18.048;2023-02-15T07:29:13;11.87;;;7.43;;
10281;SDS011;5186;59.472;18.048;2023-02-15T07:31:40;13.87;;;7.60;;
10281;SDS011;5186;59.472;18.048;2023-02-15T07:34:08;14.30;;;7.60;;
10281;SDS011;5186;59.472;18.048;2023-02-15T07:36:34;13.03;;;7.23;;
10281;SDS011;5186;59.472;18.048;2023-02-15T07:38:59;14.20;;;8.27;;
10281;SDS011;5186;59.472;18.048;2023-02-15T07:41:25;12.17;;;7.00;;
10281;SDS011;5186;59.472;18.048;2023-02-15T07:43:50;13.10;;;7.10;;
10281;SDS011;5186;59.472;18.048;2023-02-15T07:46:16;9.70;;;6.00;;
10281;SDS011;5186;59.472;18.048;2023-02-15T07:48:43;11.60;;;6.70;;
10281;SDS011;5186;59.472;18.048;2023-02-15T07:51:09;9.80;;;6.27;;
10281;SDS011;5186;59.472;18.048;2023-02-15T07:53:36;10.27;;;6.40;;
10281;SDS011;5186;59.472;18.048;2023-02-15T07:56:03;9.63;;;6.67;;
10281;SDS011;5186;59.472;18.048;2023-02-15T07:58:31;12.00;;;6.93;;
10281;SDS011;5186;59.472;18.048;2023-02-15T08:01:15;13.20;;;6.60;;
10281;SDS011;5186;59.472;18.048;2023-02-15T08:03:41;9.67;;;5.60;;
10281;SDS011;5186;59.472;18.048;2023-02-15T08:06:07;11.50;;;6.57;;
10281;SDS011;5186;59.472;18.048;2023-02-15T08:08:33;12.73;;;6.50;;
10281;SDS011;5186;59.472;18.048;2023-02-15T08:11:04;10.37;;;6.40;;
10281;SDS011;5186;59.472;18.048;2023-02-15T08:13:50;8.63;;;5.40;;
10281;SDS011;5186;59.472;18.048;2023-02-15T08:16:22;10.00;;;6.13;;
10281;SDS011;5186;59.472;18.048;2023-02-15T08:19:01;10.87;;;6.30;;
10281;SDS011;5186;59.472;18.048;2023-02-15T08:21:39;10.43;;;5.93;;
10281;SDS011;5186;59.472;18.048;2023-02-15T08:24:06;9.37;;;5.80;;
10281;SDS011;5186;59.472;18.048;2023-02-15T08:26:33;9.60;;;6.17;;
10281;SDS011;5186;59.472;18.048;2023-02-15T08:29:00;11.67;;;7.03;;
10281;SDS011;5186;59.472;18.048;2023-02-15T08:31:26;9.67;;;6.27;;
10281;SDS011;5186;59.472;18.048;2023-02-15T08:33:53;10.53;;;6.30;;
10281;SDS011;5186;59.472;18.048;2023-02-15T08:36:22;10.90;;;6.30;;
10281;SDS011;5186;59.472;18.048;2023-02-15T08:38:50;9.80;;;6.20;;
10281;SDS011;5186;59.472;18.048;2023-02-15T08:41:20;10.87;;;6.70;;
10281;SDS011;5186;59.472;18.048;2023-02-15T08:43:55;10.30;;;6.50;;
10281;SDS011;5186;59.472;18.048;2023-02-15T08:46:22;11.70;;;6.67;;
10281;SDS011;5186;59.472;18.048;2023-02-15T08:48:49;11.70;;;6.57;;
10281;SDS011;5186;59.472;18.048;2023-02-15T08:51:19;9.57;;;6.27;;
10281;SDS011;5186;59.472;18.048;2023-02-15T08:53:48;8.67;;;5.47;;
10281;SDS011;5186;59.472;18.048;2023-02-15T08:56:15;10.23;;;5.73;;
10281;SDS011;5186;59.472;18.048;2023-02-15T08:58:42;9.23;;;5.70;;
10281;SDS011;5186;59.472;18.048;2023-02-15T09:01:08;9.43;;;6.03;;
10281;SDS011;5186;59.472;18.048;2023-02-15T09:03:35;9.70;;;5.50;;
10281;SDS011;5186;59.472;18.048;2023-02-15T09:06:01;8.57;;;5.03;;
10281;SDS011;5186;59.472;18.048;2023-02-15T09:08:27;10.17;;;5.67;;
10281;SDS011;5186;59.472;18.048;2023-02-15T09:10:53;10.77;;;5.40;;
10281;SDS011;5186;59.472;18.048;2023-02-15T09:13:19;9.17;;;5.00;;
10281;SDS011;5186;59.472;18.048;2023-02-15T09:15:45;8.67;;;5.40;;
10281;SDS011;5186;59.472;18.048;2023-02-15T09:18:11;8.40;;;5.47;;
10281;SDS011;5186;59.472;18.048;2023-02-15T09:20:41;9.37;;;5.50;;
10281;SDS011;5186;59.472;18.048;2023-02-15T09:23:08;9.10;;;5.30;;
10281;SDS011;5186;59.472;18.048;2023-02-15T09:25:33;8.10;;;4.70;;
10281;SDS011;5186;59.472;18.048;2023-02-15T09:27:59;7.60;;;4.93;;
10281;SDS011;5186;59.472;18.048;2023-02-15T09:30:25;8.57;;;4.73;;
10281;SDS011;5186;59.472;18.048;2023-02-15T09:32:50;7.83;;;4.90;;
10281;SDS011;5186;59.472;18.048;2023-02-15T09:35:16;7.47;;;5.37;;
10281;SDS011;5186;59.472;18.048;2023-02-15T09:37:41;7.33;;;4.90;;
10281;SDS011;5186;59.472;18.048;2023-02-15T09:40:07;10.60;;;5.13;;
10281;SDS011;5186;59.472;18.048;2023-02-15T09:42:40;8.33;;;5.43;;
10281;SDS011;5186;59.472;18.048;2023-02-15T09:56:37;6.57;;;4.20;;
10281;SDS011;5186;59.472;18.048;2023-02-15T10:15:42;12.00;;;5.73;;
10281;SDS011;5186;59.472;18.048;2023-02-15T10:21:29;9.90;;;5.27;;
10281;SDS011;5186;59.472;18.048;2023-02-15T10:26:41;7.97;;;5.37;;
10281;SDS011;5186;59.472;18.048;2023-02-15T10:35:01;8.27;;;5.20;;
10281;SDS011;5186;59.472;18.048;2023-02-15T10:37:43;9.07;;;5.50;;
10281;SDS011;5186;59.472;18.048;2023-02-15T10:40:26;9.33;;;5.67;;
10281;SDS011;5186;59.472;18.048;2023-02-15T10:48:16;9.70;;;5.27;;
10281;SDS011;5186;59.472;18.048;2023-02-15T10:50:55;9.33;;;5.03;;
10281;SDS011;5186;59.472;18.048;2023-02-15T11:07:17;8.93;;;5.50;;
10281;SDS011;5186;59.472;18.048;2023-02-15T11:09:50;8.57;;;5.07;;
10281;SDS011;5186;59.472;18.048;2023-02-15T11:12:23;9.13;;;5.50;;
10281;SDS011;5186;59.472;18.048;2023-02-15T11:15:35;10.57;;;6.03;;
10281;SDS011;5186;59.472;18.048;2023-02-15T11:17:51;13.73;;;6.00;;
10281;SDS011;5186;59.472;18.048;2023-02-15T11:20:30;11.33;;;6.00;;
10281;SDS011;5186;59.472;18.048;2023-02-15T11:23:00;10.27;;;5.87;;
10281;SDS011;5186;59.472;18.048;2023-02-15T11:25:31;12.57;;;6.37;;
10281;SDS011;5186;59.472;18.048;2023-02-15T11:27:59;10.30;;;5.67;;
10281;SDS011;5186;59.472;18.048;2023-02-15T11:30:33;10.27;;;5.50;;
10281;SDS011;5186;59.472;18.048;2023-02-15T11:33:12;10.50;;;5.67;;
10281;SDS011;5186;59.472;18.048;2023-02-15T11:35:53;9.17;;;5.70;;
10281;SDS011;5186;59.472;18.048;2023-02-15T11:38:37;9.53;;;5.30;;
10281;SDS011;5186;59.472;18.048;2023-02-15T11:41:11;9.43;;;5.07;;
10281;SDS011;5186;59.472;18.048;2023-02-15T11:46:19;9.13;;;5.30;;
10281;SDS011;5186;59.472;18.048;2023-02-15T11:48:46;8.43;;;5.30;;
10281;SDS011;5186;59.472;18.048;2023-02-15T11:51:13;10.53;;;5.57;;
10281;SDS011;5186;59.472;18.048;2023-02-15T11:53:41;9.63;;;5.60;;
10281;SDS011;5186;59.472;18.048;2023-02-15T11:56:41;10.57;;;5.77;;
10281;SDS011;5186;59.472;18.048;2023-02-15T11:59:04;10.33;;;5.87;;
10281;SDS011;5186;59.472;18.048;2023-02-15T12:01:47;14.13;;;5.90;;
10281;SDS011;5186;59.472;18.048;2023-02-15T12:06:57;11.67;;;6.43;;
10281;SDS011;5186;59.472;18.048;2023-02-15T12:12:36;11.83;;;6.07;;
10281;SDS011;5186;59.472;18.048;2023-02-15T12:15:04;10.33;;;5.47;;
10281;SDS011;5186;59.472;18.048;2023-02-15T12:17:32;10.53;;;5.73;;
10281;SDS011;5186;59.472;18.048;2023-02-15T12:20:04;12.40;;;6.00;;
10281;SDS011;5186;59.472;18.048;2023-02-15T12:22:46;12.03;;;6.20;;
10281;SDS011;5186;59.472;18.048;2023-02-15T12:25:36;12.17;;;7.03;;
10281;SDS011;5186;59.472;18.048;2023-02-15T12:28:26;12.20;;;5.80;;
10281;SDS011;5186;59.472;18.048;2023-02-15T12:34:19;15.70;;;6.93;;
10281;SDS011;5186;59.472;18.048;2023-02-15T12:36:48;9.93;;;5.80;;
10281;SDS011;5186;59.472;18.048;2023-02-15T12:39:22;10.97;;;5.83;;
10281;SDS011;5186;59.472;18.048;2023-02-15T12:42:02;12.23;;;5.90;;
10281;SDS011;5186;59.472;18.048;2023-02-15T12:44:38;11.03;;;6.37;;
10281;SDS011;5186;59.472;18.048;2023-02-15T12:47:17;9.83;;;5.60;;
10281;SDS011;5186;59.472;18.048;2023-02-15T12:49:44;10.07;;;5.57;;
10281;SDS011;5186;59.472;18.048;2023-02-15T12:52:29;12.40;;;6.33;;
10281;SDS011;5186;59.472;18.048;2023-02-15T12:54:55;11.73;;;6.73;;
10281;SDS011;5186;59.472;18.048;2023-02-15T13:00:39;13.37;;;6.30;;
10281;SDS011;5186;59.472;18.048;2023-02-15T13:03:14;12.40;;;6.53;;
10281;SDS011;5186;59.472;18.048;2023-02-15T13:05:42;12.93;;;6.23;;
10281;SDS011;5186;59.472;18.048;2023-02-15T13:08:14;14.33;;;6.37;;
10281;SDS011;5186;59.472;18.048;2023-02-15T13:13:35;14.53;;;6.53;;
10281;SDS011;5186;59.472;18.048;2023-02-15T13:16:20;13.00;;;6.63;;
10281;SDS011;5186;59.472;18.048;2023-02-15T13:18:55;14.13;;;6.80;;
10281;SDS011;5186;59.472;18.048;2023-02-15T13:21:23;13.33;;;6.57;;
10281;SDS011;5186;59.472;18.048;2023-02-15T13:23:56;12.10;;;6.50;;
10281;SDS011;5186;59.472;18.048;2023-02-15T13:26:26;13.10;;;6.90;;
10281;SDS011;5186;59.472;18.048;2023-02-15T13:28:56;12.87;;;6.10;;
10281;SDS011;5186;59.472;18.048;2023-02-15T13:31:30;11.33;;;6.20;;
10281;SDS011;5186;59.472;18.048;2023-02-15T13:34:11;10.97;;;6.13;;
10281;SDS011;5186;59.472;18.048;2023-02-15T13:37:13;13.77;;;7.10;;
10281;SDS011;5186;59.472;18.048;2023-02-15T13:39:47;12.27;;;6.57;;
10281;SDS011;5186;59.472;18.048;2023-02-15T13:45:09;14.50;;;7.93;;
10281;SDS011;5186;59.472;18.048;2023-02-15T13:47:47;13.93;;;6.63;;
10281;SDS011;5186;59.472;18.048;2023-02-15T13:55:47;14.33;;;7.10;;
10281;SDS011;5186;59.472;18.048;2023-02-15T13:58:35;12.43;;;6.73;;
10281;SDS011;5186;59.472;18.048;2023-02-15T14:01:21;12.77;;;7.27;;
10281;SDS011;5186;59.472;18.048;2023-02-15T14:09:21;12.73;;;6.47;;
10281;SDS011;5186;59.472;18.048;2023-02-15T14:20:24;12.57;;;5.87;;
10281;SDS011;5186;59.472;18.048;2023-02-15T14:25:54;13.07;;;6.50;;
10281;SDS011;5186;59.472;18.048;2023-02-15T14:28:43;13.23;;;7.17;;
10281;SDS011;5186;59.472;18.048;2023-02-15T14:31:34;12.37;;;6.37;;
10281;SDS011;5186;59.472;18.048;2023-02-15T14:34:04;9.83;;;5.40;;
10281;SDS011;5186;59.472;18.048;2023-02-15T14:36:31;13.63;;;6.70;;
10281;SDS011;5186;59.472;18.048;2023-02-15T14:42:51;15.13;;;6.03;;
10281;SDS011;5186;59.472;18.048;2023-02-15T14:45:30;11.87;;;5.90;;
10281;SDS011;5186;59.472;18.048;2023-02-15T14:48:28;9.17;;;5.83;;
10281;SDS011;5186;59.472;18.048;2023-02-15T14:51:03;13.97;;;6.70;;
10281;SDS011;5186;59.472;18.048;2023-02-15T14:58:35;11.30;;;5.37;;
10281;SDS011;5186;59.472;18.048;2023-02-15T15:01:31;14.53;;;5.90;;
10281;SDS011;5186;59.472;18.048;2023-02-15T15:04:02;10.23;;;5.30;;
10281;SDS011;5186;59.472;18.048;2023-02-15T15:06:33;13.50;;;5.13;;
10281;SDS011;5186;59.472;18.048;2023-02-15T15:11:45;12.87;;;6.50;;
10281;SDS011;5186;59.472;18.048;2023-02-15T15:17:12;9.93;;;5.30;;
10281;SDS011;5186;59.472;18.048;2023-02-15T15:22:32;10.30;;;5.57;;
10281;SDS011;5186;59.472;18.048;2023-02-15T15:24:59;18.20;;;6.70;;
10281;SDS011;5186;59.472;18.048;2023-02-15T15:38:37;12.47;;;6.97;;
10281;SDS011;5186;59.472;18.048;2023-02-15T15:41:32;12.80;;;6.17;;
10281;SDS011;5186;59.472;18.048;2023-02-15T15:44:30;14.93;;;8.33;;
10281;SDS011;5186;59.472;18.048;2023-02-15T15:49:47;12.63;;;5.83;;
10281;SDS011;5186;59.472;18.048;2023-02-15T15:52:19;14.90;;;6.67;;
10281;SDS011;5186;59.472;18.048;2023-02-15T15:54:46;12.17;;;5.67;;
10281;SDS011;5186;59.472;18.048;2023-02-15T15:57:31;10.43;;;5.17;;
10281;SDS011;5186;59.472;18.048;2023-02-15T16:00:21;9.27;;;5.37;;
10281;SDS011;5186;59.472;18.048;2023-02-15T16:03:00;11.17;;;5.33;;
10281;SDS011;5186;59.472;18.048;2023-02-15T16:05:25;12.43;;;5.87;;
10281;SDS011;5186;59.472;18.048;2023-02-15T16:07:51;10.93;;;5.83;;
10281;SDS011;5186;59.472;18.048;2023-02-15T16:12:45;12.00;;;6.43;;
10281;SDS011;5186;59.472;18.048;2023-02-15T16:15:15;10.90;;;5.70;;
10281;SDS011;5186;59.472;18.048;2023-02-15T16:17:45;10.83;;;5.80;;
10281;SDS011;5186;59.472;18.048;2023-02-15T16:20:15;14.77;;;6.03;;
10281;SDS011;5186;59.472;18.048;2023-02-15T16:22:44;12.73;;;5.33;;
10281;SDS011;5186;59.472;18.048;2023-02-15T16:27:46;12.13;;;5.73;;
10281;SDS011;5186;59.472;18.048;2023-02-15T16:30:31;11.33;;;5.97;;
10281;SDS011;5186;59.472;18.048;2023-02-15T16:33:06;10.00;;;5.40;;
10281;SDS011;5186;59.472;18.048;2023-02-15T16:35:38;8.97;;;5.50;;
10281;SDS011;5186;59.472;18.048;2023-02-15T16:38:05;10.23;;;5.60;;
10281;SDS011;5186;59.472;18.048;2023-02-15T16:43:16;9.83;;;5.03;;
10281;SDS011;5186;59.472;18.048;2023-02-15T16:45:44;9.97;;;5.77;;
10281;SDS011;5186;59.472;18.048;2023-02-15T16:48:13;11.03;;;5.57;;
10281;SDS011;5186;59.472;18.048;2023-02-15T16:50:46;8.27;;;5.37;;
10281;SDS011;5186;59.472;18.048;2023-02-15T16:53:16;11.07;;;6.23;;
10281;SDS011;5186;59.472;18.048;2023-02-15T16:55:48;10.33;;;5.53;;
10281;SDS011;5186;59.472;18.048;2023-02-15T16:58:25;8.83;;;5.23;;
10281;SDS011;5186;59.472;18.048;2023-02-15T17:00:59;10.87;;;5.43;;
10281;SDS011;5186;59.472;18.048;2023-02-15T17:03:27;10.90;;;6.00;;
10281;SDS011;5186;59.472;18.048;2023-02-15T17:05:57;9.33;;;5.30;;
10281;SDS011;5186;59.472;18.048;2023-02-15T17:08:32;14.30;;;5.30;;
10281;SDS011;5186;59.472;18.048;2023-02-15T17:13:25;11.63;;;5.80;;
10281;SDS011;5186;59.472;18.048;2023-02-15T17:18:26;11.53;;;5.57;;
10281;SDS011;5186;59.472;18.048;2023-02-15T17:21:00;9.97;;;5.83;;
10281;SDS011;5186;59.472;18.048;2023-02-15T17:23:40;14.53;;;6.47;;
10281;SDS011;5186;59.472;18.048;2023-02-15T17:26:11;9.83;;;6.10;;
10281;SDS011;5186;59.472;18.048;2023-02-15T17:29:10;12.07;;;6.20;;
10281;SDS011;5186;59.472;18.048;2023-02-15T17:31:46;13.03;;;5.63;;
10281;SDS011;5186;59.472;18.048;2023-02-15T17:40:00;10.23;;;5.90;;
10281;SDS011;5186;59.472;18.048;2023-02-15T17:42:32;13.90;;;6.33;;
10281;SDS011;5186;59.472;18.048;2023-02-15T17:44:58;12.20;;;5.93;;
10281;SDS011;5186;59.472;18.048;2023-02-15T17:47:23;10.20;;;5.90;;
10281;SDS011;5186;59.472;18.048;2023-02-15T17:49:51;10.43;;;5.73;;
10281;SDS011;5186;59.472;18.048;2023-02-15T17:52:18;9.23;;;5.73;;
10281;SDS011;5186;59.472;18.048;2023-02-15T17:54:44;11.33;;;5.93;;
10281;SDS011;5186;59.472;18.048;2023-02-15T17:57:28;10.20;;;5.57;;
10281;SDS011;5186;59.472;18.048;2023-02-15T17:59:55;10.70;;;5.80;;
10281;SDS011;5186;59.472;18.048;2023-02-15T18:02:39;11.17;;;5.93;;
10281;SDS011;5186;59.472;18.048;2023-02-15T18:05:24;9.67;;;5.50;;
10281;SDS011;5186;59.472;18.048;2023-02-15T18:08:15;11.30;;;6.10;;
10281;SDS011;5186;59.472;18.048;2023-02-15T18:11:00;12.93;;;6.20;;
10281;SDS011;5186;59.472;18.048;2023-02-15T18:13:44;14.60;;;7.03;;
10281;SDS011;5186;59.472;18.048;2023-02-15T18:16:12;11.70;;;6.23;;
10281;SDS011;5186;59.472;18.048;2023-02-15T18:18:38;16.00;;;6.63;;
10281;SDS011;5186;59.472;18.048;2023-02-15T18:21:05;13.43;;;7.27;;
10281;SDS011;5186;59.472;18.048;2023-02-15T18:23:34;14.20;;;7.77;;